Aviation Digital Data Service (ADDS)

Output produced by METARs form (0545 UTC 21 April 2018)
found at http://aviationweather.gov/adds/metars/
 
METAR text: KLHM 210535Z AUTO 00000KT 10SM CLR 15/10 A3009 RMK AO1
Conditions at: KLHM (LINCOLN , CA, US) observed 0535 UTC 21 April 2018
Temperature: 15.0°C (59°F)
Dewpoint: 10.0°C (50°F) [RH = 72%]
Pressure (altimeter): 30.09 inches Hg (1019.0 mb)
Winds: calm
Visibility: 10 or more miles (16+ km)
Ceiling: at least 12,000 feet AGL
Clouds: sky clear below 12,000 feet AGL
Weather: automated observation with no human augmentation;
there may or may not be significant weather present at this time